createdAt,value
2022-09-30T00:01:25.776Z,12.80
2022-09-30T00:03:57.709Z,13.53
2022-09-30T00:06:25.600Z,13.73
2022-09-30T00:08:53.360Z,13.17
2022-09-30T00:11:26.228Z,13.87
2022-09-30T00:13:53.597Z,14.10
2022-09-30T00:16:22.184Z,14.60
2022-09-30T00:18:49.697Z,14.20
2022-09-30T00:21:17.246Z,14.73
2022-09-30T00:23:44.723Z,14.10
2022-09-30T00:26:15.201Z,14.30
2022-09-30T00:28:42.852Z,14.30
2022-09-30T00:31:13.799Z,13.83
2022-09-30T00:33:41.145Z,13.70
2022-09-30T00:36:07.793Z,15.23
2022-09-30T00:38:34.570Z,15.10
2022-09-30T00:41:02.672Z,14.70
2022-09-30T00:43:45.615Z,15.63
2022-09-30T00:46:35.303Z,15.93
2022-09-30T00:49:08.123Z,15.87
2022-09-30T00:51:43.420Z,15.93
2022-09-30T00:54:16.810Z,15.23
2022-09-30T00:56:50.907Z,15.70
2022-09-30T00:59:24.359Z,16.33
2022-09-30T01:01:52.051Z,15.30
2022-09-30T01:04:22.360Z,15.10
2022-09-30T01:06:50.457Z,16.33
2022-09-30T01:09:18.089Z,16.27
2022-09-30T01:11:45.619Z,16.13
2022-09-30T01:14:21.703Z,15.90
2022-09-30T01:17:19.567Z,15.57
2022-09-30T01:20:24.140Z,16.90
2022-09-30T01:22:59.760Z,15.97
2022-09-30T01:25:48.152Z,15.13
2022-09-30T01:28:29.975Z,15.27
2022-09-30T01:31:07.893Z,15.57
2022-09-30T01:33:34.634Z,15.37
2022-09-30T01:36:22.960Z,15.37
2022-09-30T01:39:00.136Z,15.53
2022-09-30T01:41:42.389Z,15.90
2022-09-30T01:44:37.989Z,15.40
2022-09-30T01:47:29.630Z,15.70
2022-09-30T01:49:59.170Z,15.90
2022-09-30T01:52:42.894Z,15.93
2022-09-30T01:55:15.623Z,15.57
2022-09-30T01:57:47.550Z,16.80
2022-09-30T02:00:15.388Z,15.63
2022-09-30T02:02:53.671Z,16.73
2022-09-30T02:05:29.705Z,15.70
2022-09-30T02:08:00.983Z,15.73
2022-09-30T02:10:47.203Z,15.90
2022-09-30T02:13:22.285Z,16.03
2022-09-30T02:15:55.827Z,16.33
2022-09-30T02:18:29.265Z,16.60
2022-09-30T02:21:02.146Z,15.83
2022-09-30T02:23:33.500Z,16.30
2022-09-30T02:26:07.048Z,15.90
2022-09-30T02:28:39.536Z,16.37
2022-09-30T02:31:11.188Z,16.77
2022-09-30T02:34:11.322Z,16.60
2022-09-30T02:36:45.553Z,15.90
2022-09-30T02:39:25.450Z,15.07
2022-09-30T02:41:58.959Z,17.20
2022-09-30T02:44:25.909Z,16.77
2022-09-30T02:47:07.778Z,16.40
2022-09-30T02:49:48.925Z,15.67
2022-09-30T02:52:27.613Z,15.37
2022-09-30T02:54:57.211Z,15.23
2022-09-30T02:57:48.817Z,16.13
2022-09-30T03:00:16.301Z,14.70
2022-09-30T03:02:42.929Z,16.40
2022-09-30T03:05:11.441Z,15.90
2022-09-30T03:07:38.578Z,16.10
2022-09-30T03:10:15.932Z,16.30
2022-09-30T03:13:10.433Z,15.33
2022-09-30T03:15:52.967Z,15.30
2022-09-30T03:18:38.810Z,16.03
2022-09-30T03:21:13.370Z,15.30
2022-09-30T03:23:53.929Z,15.87
2022-09-30T03:26:37.368Z,15.53
2022-09-30T03:29:09.818Z,13.67
2022-09-30T03:31:54.703Z,15.03
2022-09-30T03:34:27.599Z,14.53
2022-09-30T03:37:16.513Z,14.57
2022-09-30T03:40:03.039Z,14.30
2022-09-30T03:42:38.099Z,15.00
2022-09-30T03:45:16.003Z,14.87
2022-09-30T03:47:50.209Z,15.70
2022-09-30T03:50:21.778Z,15.13
2022-09-30T03:52:49.787Z,14.60
2022-09-30T03:55:17.348Z,15.03
2022-09-30T03:57:44.725Z,15.73
2022-09-30T04:00:13.044Z,16.37
2022-09-30T04:02:39.659Z,15.70
2022-09-30T04:05:06.889Z,15.93
2022-09-30T04:07:33.625Z,16.60
2022-09-30T04:10:00.408Z,16.30
2022-09-30T04:12:27.148Z,16.80
2022-09-30T04:14:53.817Z,18.27
2022-09-30T04:17:20.719Z,17.60
2022-09-30T04:19:47.434Z,16.87
2022-09-30T04:22:14.047Z,19.00
2022-09-30T04:24:40.743Z,17.17
2022-09-30T04:27:07.602Z,18.03
2022-09-30T04:29:34.275Z,17.10
2022-09-30T04:32:01.219Z,17.07
2022-09-30T04:34:27.812Z,17.63
2022-09-30T04:36:54.450Z,19.07
2022-09-30T04:39:21.125Z,19.37
2022-09-30T04:41:47.766Z,18.53
2022-09-30T04:44:14.437Z,19.77
2022-09-30T04:46:41.041Z,19.50
2022-09-30T04:49:09.470Z,19.63
2022-09-30T04:51:37.202Z,19.57
2022-09-30T04:54:04.618Z,19.77
2022-09-30T04:56:31.706Z,19.40
2022-09-30T04:59:01.369Z,19.23
2022-09-30T05:01:28.036Z,18.50
2022-09-30T05:03:54.895Z,18.90
2022-09-30T05:06:22.070Z,18.53
2022-09-30T05:08:50.200Z,17.20
2022-09-30T05:11:19.871Z,18.90
2022-09-30T05:13:47.251Z,17.40
2022-09-30T05:16:15.924Z,19.80
2022-09-30T05:18:45.611Z,18.37
2022-09-30T05:21:17.966Z,18.47
2022-09-30T05:23:44.939Z,19.27
2022-09-30T05:26:12.724Z,17.77
2022-09-30T05:28:41.236Z,19.20
2022-09-30T05:31:08.238Z,21.47
2022-09-30T05:33:35.911Z,20.17
2022-09-30T05:36:05.500Z,18.40
2022-09-30T05:38:32.331Z,19.63
2022-09-30T05:40:59.282Z,27.70
2022-09-30T05:43:25.982Z,18.50
2022-09-30T05:45:57.296Z,19.20
2022-09-30T05:48:25.687Z,18.70
2022-09-30T05:50:57.660Z,18.37
2022-09-30T05:53:24.655Z,18.73
2022-09-30T05:55:52.124Z,18.87
2022-09-30T05:58:19.465Z,18.80
2022-09-30T06:00:48.187Z,17.57
2022-09-30T06:03:15.993Z,18.13
2022-09-30T06:05:44.633Z,19.63
2022-09-30T06:08:12.104Z,18.00
2022-09-30T06:10:42.092Z,18.67
2022-09-30T06:13:09.188Z,19.47
2022-09-30T06:15:39.326Z,18.60
2022-09-30T06:18:06.137Z,18.97
2022-09-30T06:20:32.951Z,20.17
2022-09-30T06:23:03.112Z,21.40
2022-09-30T06:25:30.189Z,21.53
2022-09-30T06:27:57.417Z,20.57
2022-09-30T06:30:24.518Z,20.13
2022-09-30T06:32:51.600Z,21.10
2022-09-30T06:35:19.552Z,22.00
2022-09-30T06:37:46.429Z,20.53
2022-09-30T06:40:13.083Z,21.03
2022-09-30T06:42:39.822Z,21.53
2022-09-30T06:45:07.287Z,20.80
2022-09-30T06:47:34.051Z,21.87
2022-09-30T06:50:00.846Z,20.60
2022-09-30T06:52:27.573Z,19.93
2022-09-30T06:54:56.801Z,20.20
2022-09-30T06:57:26.811Z,20.73
2022-09-30T06:59:54.630Z,20.97
2022-09-30T07:02:22.154Z,19.50
2022-09-30T07:04:49.114Z,19.97
2022-09-30T07:07:15.861Z,19.60
2022-09-30T07:09:43.446Z,19.53
2022-09-30T07:12:10.640Z,18.90
2022-09-30T07:14:37.475Z,17.57
2022-09-30T07:17:06.022Z,17.57
2022-09-30T07:19:34.210Z,16.40
2022-09-30T07:22:21.840Z,16.57
2022-09-30T07:24:48.616Z,16.60
2022-09-30T07:27:15.295Z,16.97
2022-09-30T07:30:04.260Z,17.17
2022-09-30T07:32:29.810Z,16.60
2022-09-30T07:34:56.587Z,16.13
2022-09-30T07:37:25.156Z,16.13
2022-09-30T07:39:52.632Z,16.67
2022-09-30T07:42:23.196Z,17.03
2022-09-30T07:44:52.146Z,15.07
2022-09-30T07:47:19.614Z,16.43
2022-09-30T07:49:46.475Z,15.10
2022-09-30T07:52:14.077Z,14.53
2022-09-30T07:54:46.647Z,14.67
2022-09-30T07:57:14.984Z,14.57
2022-09-30T07:59:42.409Z,14.17
2022-09-30T08:02:15.230Z,15.03
2022-09-30T08:04:44.261Z,14.70
2022-09-30T08:07:12.747Z,15.00
2022-09-30T08:09:39.579Z,14.20
2022-09-30T08:12:06.439Z,14.03
2022-09-30T08:14:33.569Z,14.30
2022-09-30T08:17:00.847Z,15.33
2022-09-30T08:19:29.483Z,14.60
2022-09-30T08:21:57.261Z,14.73
2022-09-30T08:24:25.352Z,14.60
2022-09-30T08:26:52.598Z,14.83
2022-09-30T08:29:35.829Z,13.87
2022-09-30T08:32:07.007Z,13.40
2022-09-30T08:34:35.698Z,14.13
2022-09-30T08:37:07.878Z,13.27
2022-09-30T08:39:35.860Z,13.47
2022-09-30T08:42:35.646Z,14.13
2022-09-30T08:45:24.820Z,13.33
2022-09-30T08:48:03.170Z,12.47
2022-09-30T08:50:49.381Z,12.70
2022-09-30T08:53:25.157Z,12.90
2022-09-30T08:55:54.511Z,12.73
2022-09-30T08:58:27.634Z,13.13
2022-09-30T09:01:01.108Z,11.97
2022-09-30T09:03:31.277Z,13.20
2022-09-30T09:06:20.240Z,13.60
2022-09-30T09:08:59.028Z,13.07
2022-09-30T09:11:46.948Z,13.23
2022-09-30T09:14:19.810Z,13.40
2022-09-30T09:17:00.155Z,13.10
2022-09-30T09:19:36.588Z,13.90
2022-09-30T09:22:03.722Z,13.30
2022-09-30T09:24:50.693Z,13.37
2022-09-30T09:30:07.562Z,13.60
2022-09-30T09:32:36.163Z,13.53
2022-09-30T09:35:24.183Z,14.17
2022-09-30T09:38:26.002Z,14.20
2022-09-30T09:41:16.789Z,11.93
2022-09-30T09:43:56.313Z,13.17
2022-09-30T09:46:55.400Z,12.70
2022-09-30T09:49:24.182Z,12.07
2022-09-30T09:52:13.828Z,11.73
2022-09-30T09:54:51.265Z,10.53
2022-09-30T09:57:25.816Z,10.33
2022-09-30T10:00:28.052Z,10.30
2022-09-30T10:03:24.968Z,10.10
2022-09-30T10:06:03.537Z,9.53
2022-09-30T10:08:33.719Z,9.23
2022-09-30T10:11:06.256Z,7.30
2022-09-30T10:13:42.959Z,7.73
2022-09-30T10:16:36.056Z,6.60
2022-09-30T10:19:19.305Z,6.37
2022-09-30T10:21:46.357Z,6.93
2022-09-30T10:24:30.072Z,6.93
2022-09-30T10:26:56.821Z,6.93
2022-09-30T10:29:27.303Z,5.87
2022-09-30T10:31:58.978Z,5.67
2022-09-30T10:34:31.283Z,4.97
2022-09-30T10:37:02.218Z,4.57
2022-09-30T10:39:32.919Z,4.63
2022-09-30T10:42:06.027Z,4.17
2022-09-30T10:44:42.420Z,4.17
2022-09-30T10:47:13.780Z,3.97
2022-09-30T10:49:48.417Z,3.80
2022-09-30T10:52:25.805Z,3.90
2022-09-30T10:54:54.873Z,4.87
2022-09-30T10:57:32.942Z,3.83
2022-09-30T11:00:07.029Z,4.03
2022-09-30T11:02:53.159Z,4.00
2022-09-30T11:05:41.120Z,3.70
2022-09-30T11:08:16.838Z,3.93
2022-09-30T11:11:10.069Z,3.60
2022-09-30T11:13:50.343Z,3.73
2022-09-30T11:16:31.698Z,3.60
2022-09-30T11:19:20.269Z,3.37
2022-09-30T11:22:04.731Z,3.33
2022-09-30T11:24:51.104Z,3.10
2022-09-30T11:27:39.139Z,3.10
2022-09-30T11:30:20.386Z,2.80
2022-09-30T11:33:09.265Z,2.13
2022-09-30T11:35:42.971Z,2.47
2022-09-30T11:38:15.855Z,2.27
2022-09-30T11:41:01.617Z,2.00
2022-09-30T11:43:57.009Z,1.70
2022-09-30T11:46:59.040Z,1.70
2022-09-30T11:49:44.591Z,1.40
2022-09-30T11:52:29.241Z,1.90
2022-09-30T11:55:15.203Z,1.73
2022-09-30T11:58:22.413Z,1.83
2022-09-30T12:01:01.758Z,1.80
2022-09-30T12:03:42.525Z,1.43
2022-09-30T12:06:23.795Z,1.50
2022-09-30T12:08:56.995Z,1.73
2022-09-30T12:11:34.023Z,1.30
2022-09-30T12:14:09.742Z,1.97
2022-09-30T12:16:37.687Z,1.87
2022-09-30T12:19:25.124Z,1.70
2022-09-30T12:22:06.350Z,1.77
2022-09-30T12:24:37.708Z,2.20
2022-09-30T12:27:14.264Z,2.07
2022-09-30T12:30:12.626Z,2.03
2022-09-30T12:33:06.072Z,1.93
2022-09-30T12:35:47.833Z,2.30
2022-09-30T12:38:30.129Z,1.93
2022-09-30T12:41:17.565Z,1.80
2022-09-30T12:43:55.948Z,2.03
2022-09-30T12:46:48.631Z,2.17
2022-09-30T12:49:21.619Z,1.87
2022-09-30T12:51:56.893Z,2.17
2022-09-30T12:54:32.507Z,2.00
2022-09-30T12:57:03.844Z,2.00
2022-09-30T12:59:37.617Z,1.80
2022-09-30T13:02:07.038Z,1.70
2022-09-30T13:04:35.275Z,3.70
2022-09-30T13:07:01.831Z,2.57
2022-09-30T13:09:37.702Z,1.50
2022-09-30T13:12:04.236Z,1.80
2022-09-30T13:14:39.571Z,2.00
2022-09-30T13:17:09.184Z,2.00
2022-09-30T13:19:51.873Z,1.83
2022-09-30T13:22:18.593Z,2.17
2022-09-30T13:25:00.658Z,2.27
2022-09-30T13:27:47.885Z,2.20
2022-09-30T13:30:17.407Z,2.47
2022-09-30T13:33:04.256Z,1.93
2022-09-30T13:35:49.486Z,2.20
2022-09-30T13:38:18.559Z,2.13
2022-09-30T13:41:20.144Z,2.10
2022-09-30T13:44:05.184Z,2.33
2022-09-30T13:46:36.985Z,2.77
2022-09-30T13:49:45.719Z,1.90
2022-09-30T13:52:24.752Z,2.50
2022-09-30T13:54:52.522Z,3.73
2022-09-30T13:57:25.411Z,3.10
2022-09-30T14:00:06.742Z,2.63
2022-09-30T14:02:36.657Z,2.27
2022-09-30T14:05:37.095Z,2.50
2022-09-30T14:08:19.478Z,2.37
2022-09-30T14:11:16.567Z,2.20
2022-09-30T14:14:13.449Z,2.27
2022-09-30T14:17:21.768Z,1.80
2022-09-30T14:19:54.393Z,2.00
2022-09-30T14:22:25.792Z,1.87
2022-09-30T14:24:53.150Z,1.20
2022-09-30T14:27:38.012Z,1.23
2022-09-30T14:30:19.342Z,1.33
2022-09-30T14:32:52.834Z,1.57
2022-09-30T14:35:28.288Z,2.03
2022-09-30T14:38:01.198Z,1.50
2022-09-30T14:40:34.077Z,2.17
2022-09-30T14:43:07.208Z,1.50
2022-09-30T14:45:37.028Z,1.57
2022-09-30T14:48:15.550Z,1.57
2022-09-30T14:50:51.082Z,1.00
2022-09-30T14:53:58.479Z,1.20
2022-09-30T14:56:31.286Z,1.30
2022-09-30T14:58:59.825Z,1.33
2022-09-30T15:01:34.434Z,1.43
2022-09-30T15:04:14.862Z,1.40
2022-09-30T15:06:49.389Z,1.47
2022-09-30T15:09:36.215Z,1.30
2022-09-30T15:12:11.340Z,1.40
2022-09-30T15:14:52.218Z,1.23
2022-09-30T15:17:31.011Z,1.43
2022-09-30T15:19:58.780Z,1.50
2022-09-30T15:22:28.975Z,1.60
2022-09-30T15:24:57.744Z,1.50
2022-09-30T15:27:32.999Z,1.60
2022-09-30T15:30:01.951Z,3.03
2022-09-30T15:32:36.581Z,2.10
2022-09-30T15:35:23.954Z,2.10
2022-09-30T15:37:52.266Z,1.90
2022-09-30T15:40:43.086Z,1.90
2022-09-30T15:43:14.445Z,1.60
2022-09-30T15:45:46.016Z,2.00
2022-09-30T15:48:16.826Z,1.80
2022-09-30T15:50:55.853Z,1.90
2022-09-30T15:53:36.696Z,1.90
2022-09-30T15:56:19.599Z,1.97
2022-09-30T15:59:05.031Z,3.07
2022-09-30T16:01:36.676Z,2.40
2022-09-30T16:04:12.871Z,2.57
2022-09-30T16:07:07.693Z,2.50
2022-09-30T16:09:37.203Z,2.43
2022-09-30T16:15:15.038Z,2.63
2022-09-30T16:17:50.532Z,2.60
2022-09-30T16:23:37.391Z,2.87
2022-09-30T16:26:16.146Z,2.90
2022-09-30T16:28:45.662Z,2.90
2022-09-30T16:31:14.152Z,2.97
2022-09-30T16:33:43.163Z,2.83
2022-09-30T16:36:11.631Z,2.80
2022-09-30T16:38:38.812Z,3.10
2022-09-30T16:41:05.770Z,3.10
2022-09-30T16:43:32.802Z,3.20
2022-09-30T16:46:02.323Z,2.90
2022-09-30T16:48:29.237Z,3.17
2022-09-30T16:51:13.864Z,2.77
2022-09-30T16:53:41.505Z,3.27
2022-09-30T16:56:16.499Z,2.90
2022-09-30T16:58:44.213Z,2.90
2022-09-30T17:01:22.390Z,4.23
2022-09-30T17:03:49.454Z,7.73
2022-09-30T17:06:18.578Z,6.30
2022-09-30T17:08:45.473Z,5.00
2022-09-30T17:11:13.194Z,5.03
2022-09-30T17:13:40.811Z,4.57
2022-09-30T17:16:08.572Z,4.33
2022-09-30T17:18:35.289Z,4.63
2022-09-30T17:21:02.110Z,4.80
2022-09-30T17:23:28.826Z,4.83
2022-09-30T17:25:55.617Z,4.77
2022-09-30T17:28:22.469Z,4.20
2022-09-30T17:30:50.381Z,4.50
2022-09-30T17:33:20.805Z,5.20
2022-09-30T17:35:59.395Z,5.30
2022-09-30T17:38:27.027Z,4.70
2022-09-30T17:41:12.211Z,5.60
2022-09-30T17:43:39.266Z,5.90
2022-09-30T17:46:06.542Z,5.70
2022-09-30T17:48:33.330Z,5.23
2022-09-30T17:51:00.335Z,6.13
2022-09-30T17:53:30.811Z,6.70
2022-09-30T17:56:16.976Z,7.27
2022-09-30T17:58:47.365Z,6.83
2022-09-30T18:01:15.497Z,7.10
2022-09-30T18:03:42.218Z,7.17
2022-09-30T18:06:08.890Z,7.57
2022-09-30T18:08:35.902Z,8.47
2022-09-30T18:11:02.896Z,7.90
2022-09-30T18:13:29.871Z,7.37
2022-09-30T18:16:01.914Z,7.40
2022-09-30T18:18:29.409Z,8.43
2022-09-30T18:20:56.043Z,7.80
2022-09-30T18:23:22.821Z,7.77
2022-09-30T18:25:49.833Z,8.27
2022-09-30T18:28:16.817Z,9.10
2022-09-30T18:30:43.820Z,16.23
2022-09-30T18:33:11.023Z,11.17
2022-09-30T18:35:39.268Z,10.17
2022-09-30T18:38:06.801Z,10.03
2022-09-30T18:40:33.852Z,10.00
2022-09-30T18:43:02.678Z,8.50
2022-09-30T18:45:31.053Z,9.30
2022-09-30T18:48:00.049Z,8.97
2022-09-30T18:50:28.560Z,9.30
2022-09-30T18:52:55.835Z,9.20
2022-09-30T18:55:22.806Z,8.83
2022-09-30T18:57:53.321Z,9.27
2022-09-30T19:00:20.631Z,8.23
2022-09-30T19:02:47.284Z,9.43
2022-09-30T19:05:16.689Z,8.47
2022-09-30T19:07:43.423Z,8.70
2022-09-30T19:10:12.596Z,9.77
2022-09-30T19:12:40.600Z,9.10
2022-09-30T19:15:09.542Z,9.10
2022-09-30T19:17:37.538Z,9.23
2022-09-30T19:20:06.049Z,9.30
2022-09-30T19:22:37.105Z,9.53
2022-09-30T19:25:05.866Z,9.70
2022-09-30T19:27:33.495Z,9.40
2022-09-30T19:30:00.252Z,9.90
2022-09-30T19:32:29.379Z,10.27
2022-09-30T19:35:05.060Z,10.17
2022-09-30T19:37:33.213Z,10.07
2022-09-30T19:40:09.479Z,10.00
2022-09-30T19:42:39.983Z,10.00
2022-09-30T19:45:07.863Z,9.13
2022-09-30T19:47:34.827Z,10.47
2022-09-30T19:50:03.096Z,9.10
2022-09-30T19:52:30.227Z,9.70
2022-09-30T19:55:07.899Z,10.03
2022-09-30T19:57:42.120Z,9.87
2022-09-30T20:00:11.551Z,12.27
2022-09-30T20:02:38.528Z,14.53
2022-09-30T20:05:06.335Z,13.13
2022-09-30T20:07:33.308Z,14.00
2022-09-30T20:10:00.914Z,11.83
2022-09-30T20:12:28.997Z,10.53
2022-09-30T20:15:14.366Z,11.30
2022-09-30T20:17:41.041Z,11.03
2022-09-30T20:20:27.985Z,10.83
2022-09-30T20:22:54.714Z,10.03
2022-09-30T20:25:21.426Z,10.33
2022-09-30T20:27:52.165Z,10.07
2022-09-30T20:30:20.346Z,10.53
2022-09-30T20:32:47.042Z,10.37
2022-09-30T20:35:14.014Z,11.40
2022-09-30T20:37:42.381Z,9.60
2022-09-30T20:40:09.916Z,10.20
2022-09-30T20:42:38.481Z,10.37
2022-09-30T20:45:10.773Z,10.63
2022-09-30T20:47:43.826Z,9.67
2022-09-30T20:50:12.681Z,10.23
2022-09-30T20:52:39.347Z,10.43
2022-09-30T20:55:06.647Z,10.10
2022-09-30T20:57:33.343Z,10.17
2022-09-30T21:00:01.445Z,9.63
2022-09-30T21:02:29.055Z,10.47
2022-09-30T21:04:59.735Z,10.60
2022-09-30T21:07:27.066Z,11.07
2022-09-30T21:09:53.777Z,9.70
2022-09-30T21:12:20.485Z,9.87
2022-09-30T21:14:47.268Z,9.73
2022-09-30T21:17:13.968Z,9.30
2022-09-30T21:19:40.595Z,8.83
2022-09-30T21:22:07.354Z,9.70
2022-09-30T21:24:34.042Z,9.60
2022-09-30T21:27:01.766Z,10.03
2022-09-30T21:29:30.593Z,9.33
2022-09-30T21:31:57.773Z,9.57
2022-09-30T21:34:24.698Z,9.10
2022-09-30T21:36:51.546Z,9.30
2022-09-30T21:39:18.221Z,8.93
2022-09-30T21:41:46.084Z,9.13
2022-09-30T21:44:14.002Z,8.77
2022-09-30T21:46:43.666Z,9.00
2022-09-30T21:49:23.758Z,8.50
2022-09-30T21:51:52.955Z,8.80
2022-09-30T21:54:20.584Z,8.63
2022-09-30T21:56:48.520Z,9.10
2022-09-30T21:59:15.825Z,8.80
2022-09-30T22:01:42.596Z,8.43
2022-09-30T22:04:09.995Z,7.90
2022-09-30T22:06:36.731Z,8.77
2022-09-30T22:09:03.912Z,7.77
2022-09-30T22:11:31.557Z,8.77
2022-09-30T22:13:59.708Z,8.50
2022-09-30T22:16:29.841Z,8.17
2022-09-30T22:19:01.445Z,7.90
2022-09-30T22:21:32.026Z,8.37
2022-09-30T22:24:00.288Z,8.43
2022-09-30T22:26:28.552Z,8.27
2022-09-30T22:29:01.227Z,7.90
2022-09-30T22:31:30.574Z,7.67
2022-09-30T22:34:18.906Z,8.20
2022-09-30T22:37:04.551Z,8.23
2022-09-30T22:39:31.313Z,7.60
2022-09-30T22:41:58.851Z,8.20
2022-09-30T22:44:28.653Z,7.27
2022-09-30T22:47:00.238Z,7.93
2022-09-30T22:49:28.461Z,8.20
2022-09-30T22:51:57.071Z,7.33
2022-09-30T22:54:25.969Z,7.70
2022-09-30T22:56:54.481Z,8.60
2022-09-30T22:59:22.918Z,6.97
2022-09-30T23:01:49.687Z,7.07
2022-09-30T23:04:17.670Z,7.53
2022-09-30T23:06:48.336Z,6.83
2022-09-30T23:09:15.900Z,7.70
2022-09-30T23:11:45.364Z,7.47
2022-09-30T23:14:13.088Z,7.17
2022-09-30T23:16:40.621Z,7.10
2022-09-30T23:19:07.289Z,7.37
2022-09-30T23:21:34.291Z,6.77
2022-09-30T23:24:01.961Z,7.03
2022-09-30T23:26:30.099Z,7.30
2022-09-30T23:29:06.014Z,7.63
2022-09-30T23:31:33.713Z,6.73
2022-09-30T23:34:02.532Z,7.10
2022-09-30T23:36:33.217Z,7.40
2022-09-30T23:39:02.801Z,7.13
2022-09-30T23:41:31.033Z,6.87
2022-09-30T23:43:58.251Z,7.30
2022-09-30T23:46:24.994Z,6.70
2022-09-30T23:48:51.673Z,6.87
2022-09-30T23:51:19.211Z,7.53
2022-09-30T23:53:46.033Z,6.90
2022-09-30T23:56:15.508Z,6.77
2022-09-30T23:58:43.555Z,7.30
